Time;durP1;ratioP1;P1;durP2;ratioP2;P2;SDS_P1;SDS_P2;PMS_P1;PMS_P2;Temp;Humidity;BMP_temperature;BMP_pressure;BME280_temperature;BME280_humidity;BME280_pressure;Samples;Min_cycle;Max_cycle;Signal;HPM_P1;HPM_P2
2021/11/22 00:01:10;;;;;;;61.55;35.53;;;;;;;-140.05;100.00;61859.38;4876255;29;20200;-68
2021/11/22 00:03:38;;;;;;;65.40;39.17;;;;;;;-140.05;100.00;61859.38;4875158;29;20210;-70
2021/11/22 00:06:05;;;;;;;67.72;37.15;;;;;;;-140.05;100.00;61859.38;4876188;29;20206;-71
2021/11/22 00:08:32;;;;;;;63.58;36.30;;;;;;;-140.05;100.00;61859.38;4876121;29;20218;-68
2021/11/22 00:10:59;;;;;;;63.55;35.67;;;;;;;-140.05;100.00;61859.38;4865700;29;20203;-68
2021/11/22 00:13:27;;;;;;;56.97;34.67;;;;;;;-140.05;100.00;61859.38;4867465;29;20221;-70
2021/11/22 00:15:55;;;;;;;61.90;35.65;;;;;;;-140.05;100.00;61859.38;4866605;29;20206;-69
2021/11/22 00:18:22;;;;;;;62.00;35.28;;;;;;;-140.05;100.00;61859.38;4865006;29;20211;-70
2021/11/22 00:20:50;;;;;;;59.38;33.58;;;;;;;-140.05;100.00;61859.38;4864777;29;20214;-70
2021/11/22 00:23:17;;;;;;;69.03;35.75;;;;;;;-140.05;100.00;61859.38;4874201;29;20230;-68
2021/11/22 00:25:44;;;;;;;56.90;34.03;;;;;;;-140.05;100.00;61859.38;4875961;29;20198;-66
2021/11/22 00:28:11;;;;;;;61.28;35.42;;;;;;;-140.05;100.00;61859.38;4887654;29;20214;-68
2021/11/22 00:30:59;;;;;;;57.80;34.75;;;;;;;-140.05;100.00;61859.38;4874095;29;20207;-67
2021/11/22 00:33:36;;;;;;;59.00;34.78;;;;;;;-140.05;100.00;61859.38;4889553;29;20247;-68
2021/11/22 00:36:23;;;;;;;59.53;35.45;;;;;;;-140.05;100.00;61859.38;4889947;29;20233;-71
2021/11/22 00:38:50;;;;;;;58.65;34.25;;;;;;;-140.05;100.00;61859.38;4875369;29;20253;-71
2021/11/22 00:41:17;;;;;;;54.80;34.92;;;;;;;-140.05;100.00;61859.38;4873159;29;20206;-66
2021/11/22 00:43:44;;;;;;;60.17;34.67;;;;;;;-140.05;100.00;61859.38;4874799;29;20262;-69
2021/11/22 00:46:12;;;;;;;53.53;34.50;;;;;;;-140.05;100.00;61859.38;4875632;29;20203;-65
2021/11/22 00:48:39;;;;;;;62.28;36.70;;;;;;;-140.05;100.00;61859.38;4875600;29;20242;-65
2021/11/22 00:51:06;;;;;;;57.22;34.28;;;;;;;-140.05;100.00;61859.38;4875106;29;20206;-71
2021/11/22 00:53:33;;;;;;;62.03;34.67;;;;;;;-140.05;100.00;61859.38;4875445;29;20663;-71
2021/11/22 00:56:00;;;;;;;54.72;33.92;;;;;;;-140.05;100.00;61859.38;4877148;29;20214;-64
2021/11/22 00:58:27;;;;;;;64.47;37.55;;;;;;;-140.05;100.00;61859.38;4878905;29;20199;-70
2021/11/22 01:00:54;;;;;;;58.92;35.50;;;;;;;-140.05;100.00;61859.38;4879237;29;20297;-69
2021/11/22 01:03:22;;;;;;;57.47;34.88;;;;;;;-140.05;100.00;61859.38;4879213;29;20225;-70
2021/11/22 01:05:49;;;;;;;58.42;36.42;;;;;;;-140.05;100.00;61859.38;4879453;29;20198;-69
2021/11/22 01:08:16;;;;;;;69.40;42.60;;;;;;;-140.05;100.00;61859.38;4878876;29;20257;-69
2021/11/22 01:10:44;;;;;;;93.15;56.08;;;;;;;-140.05;100.00;61859.38;4871229;29;20226;-65
2021/11/22 01:13:12;;;;;;;94.70;56.15;;;;;;;-140.05;100.00;61859.38;4867422;29;20198;-69
2021/11/22 01:15:40;;;;;;;114.60;67.38;;;;;;;-140.05;100.00;61859.38;4870995;29;20207;-68
2021/11/22 01:18:07;;;;;;;142.82;82.90;;;;;;;-140.05;100.00;61859.38;4867532;29;20333;-72
2021/11/22 01:20:35;;;;;;;189.20;108.75;;;;;;;-140.05;100.00;61859.38;4867282;29;20202;-67
2021/11/22 01:23:06;;;;;;;227.80;128.98;;;;;;;-140.05;100.00;61859.38;4867783;29;20261;-67
2021/11/22 01:25:33;;;;;;;235.43;131.00;;;;;;;-140.05;100.00;61859.38;4869750;29;20222;-69
2021/11/22 01:28:01;;;;;;;246.30;135.13;;;;;;;-140.05;100.00;61859.38;4865139;29;20201;-69
2021/11/22 01:30:28;;;;;;;271.73;148.63;;;;;;;-140.05;100.00;61859.38;4873381;29;20708;-72
2021/11/22 01:32:55;;;;;;;252.48;143.98;;;;;;;-140.05;100.00;61859.38;4874856;29;20686;-68
2021/11/22 01:35:23;;;;;;;243.45;135.38;;;;;;;-140.05;100.00;61859.38;4865980;29;20219;-69
2021/11/22 01:37:50;;;;;;;245.90;136.95;;;;;;;-140.05;100.00;61859.38;4867760;29;20682;-66
2021/11/22 01:40:22;;;;;;;227.25;124.32;;;;;;;-140.05;100.00;61859.38;4869104;29;20275;-68
2021/11/22 01:42:51;;;;;;;215.25;117.57;;;;;;;-140.05;100.00;61859.38;4887121;29;20733;-70
2021/11/22 01:45:19;;;;;;;202.18;111.05;;;;;;;-140.05;100.00;61859.38;4869617;29;20202;-69
2021/11/22 01:47:47;;;;;;;179.10;102.68;;;;;;;-140.05;100.00;61859.38;4869779;29;20746;-70
2021/11/22 01:50:18;;;;;;;147.10;84.05;;;;;;;-140.05;100.00;61859.38;4863864;29;20234;-71
2021/11/22 01:52:47;;;;;;;151.50;80.43;;;;;;;-140.05;100.00;61859.38;4876809;29;20257;-66
2021/11/22 01:55:17;;;;;;;146.88;80.43;;;;;;;-140.05;100.00;61859.38;4879091;29;20641;-68
2021/11/22 01:57:46;;;;;;;145.13;79.20;;;;;;;-140.05;100.00;61859.38;4877980;29;20210;-70
2021/11/22 02:00:27;;;;;;;140.23;79.75;;;;;;;-140.05;100.00;61859.38;4876467;29;20225;-69
2021/11/22 02:02:56;;;;;;;140.50;78.50;;;;;;;-140.05;100.00;61859.38;4877494;29;20206;-69
2021/11/22 02:05:23;;;;;;;135.98;72.28;;;;;;;-140.05;100.00;61859.38;4877662;29;20290;-71
2021/11/22 02:07:52;;;;;;;123.72;68.68;;;;;;;-140.05;100.00;61859.38;4877533;29;20198;-69
2021/11/22 02:10:20;;;;;;;130.80;74.65;;;;;;;-140.05;100.00;61859.38;4892706;29;20270;-68
2021/11/22 02:12:48;;;;;;;138.93;76.22;;;;;;;-140.05;100.00;61859.38;4858670;29;20989;-66
2021/11/22 02:15:16;;;;;;;130.02;74.75;;;;;;;-140.05;100.00;61859.38;4869071;29;20213;-70
2021/11/22 02:17:47;;;;;;;127.07;68.97;;;;;;;-140.05;100.00;61859.38;4863077;29;20214;-71
2021/11/22 02:20:17;;;;;;;130.80;72.32;;;;;;;-140.05;100.00;61859.38;4866835;29;20206;-72
2021/11/22 02:22:47;;;;;;;135.57;75.50;;;;;;;-140.05;100.00;61859.38;4875224;29;20566;-73
2021/11/22 02:25:16;;;;;;;130.30;72.32;;;;;;;-140.05;100.00;61859.38;4874485;29;20223;-71
2021/11/22 02:27:45;;;;;;;119.78;67.60;;;;;;;-140.05;100.00;61859.38;4872628;29;20238;-70
2021/11/22 02:30:15;;;;;;;108.07;61.40;;;;;;;-140.05;100.00;61859.38;4871323;29;20211;-71
2021/11/22 02:32:44;;;;;;;106.65;59.08;;;;;;;-140.05;100.00;61859.38;4877269;29;20199;-70
2021/11/22 02:35:15;;;;;;;121.28;67.00;;;;;;;-140.05;100.00;61859.38;4878112;29;20210;-71
2021/11/22 02:37:42;;;;;;;117.35;65.53;;;;;;;-140.05;100.00;61859.38;4877294;29;20218;-68
2021/11/22 02:40:11;;;;;;;120.95;67.57;;;;;;;-140.05;100.00;61859.38;4876742;29;20722;-68
2021/11/22 02:42:44;;;;;;;121.07;66.88;;;;;;;-140.05;100.00;61859.38;4865711;29;20667;-67
2021/11/22 02:45:14;;;;;;;109.05;62.40;;;;;;;-140.05;100.00;61859.38;4866088;29;20305;-66
2021/11/22 02:47:41;;;;;;;117.85;65.35;;;;;;;-140.05;100.00;61859.38;4876571;29;20210;-69
2021/11/22 02:50:11;;;;;;;122.32;67.05;;;;;;;-140.05;100.00;61859.38;4872869;29;21054;-69
2021/11/22 02:52:40;;;;;;;116.47;64.38;;;;;;;-140.05;100.00;61859.38;4864909;29;20322;-67
2021/11/22 02:55:10;;;;;;;123.18;66.50;;;;;;;-140.05;100.00;61859.38;4866191;29;20195;-67
2021/11/22 02:57:38;;;;;;;122.45;67.43;;;;;;;-140.05;100.00;61859.38;4867434;29;20205;-68
2021/11/22 03:00:27;;;;;;;110.93;63.92;;;;;;;-140.05;100.00;61859.38;4865331;29;20210;-67
2021/11/22 03:02:55;;;;;;;122.22;67.00;;;;;;;-140.05;100.00;61859.38;4865895;29;20893;-67
2021/11/22 03:05:23;;;;;;;120.93;65.03;;;;;;;-140.05;100.00;61859.38;4868801;29;20229;-66
2021/11/22 03:07:53;;;;;;;111.30;60.90;;;;;;;-140.05;100.00;61859.38;4868630;29;20199;-68
2021/11/22 03:10:25;;;;;;;99.40;55.95;;;;;;;-140.05;100.00;61859.38;4871175;29;20241;-70
2021/11/22 03:12:53;;;;;;;103.47;56.72;;;;;;;-140.05;100.00;61859.38;4874173;29;20853;-71
2021/11/22 03:15:22;;;;;;;100.43;57.92;;;;;;;-140.05;100.00;61859.38;4876889;29;20195;-69
2021/11/22 03:17:49;;;;;;;103.47;59.95;;;;;;;-140.05;100.00;61859.38;4875902;29;20281;-69
2021/11/22 03:20:19;;;;;;;103.95;59.55;;;;;;;-140.05;100.00;61859.38;4876939;29;20207;-71
2021/11/22 03:22:47;;;;;;;108.10;62.15;;;;;;;-140.05;100.00;61859.38;4876737;29;20378;-65
2021/11/22 03:25:16;;;;;;;106.57;59.08;;;;;;;-140.05;100.00;61859.38;4875381;29;20234;-70
2021/11/22 03:27:45;;;;;;;107.38;60.63;;;;;;;-140.05;100.00;61859.38;4874797;29;20210;-68
2021/11/22 03:30:14;;;;;;;106.72;59.28;;;;;;;-140.05;100.00;61859.38;4864132;29;20237;-69
2021/11/22 03:32:42;;;;;;;106.10;60.78;;;;;;;-140.05;100.00;61859.38;4865361;29;20227;-70
2021/11/22 03:35:11;;;;;;;104.43;59.80;;;;;;;-140.05;100.00;61859.38;4865430;29;20317;-67
2021/11/22 03:37:38;;;;;;;105.57;60.00;;;;;;;-140.05;100.00;61859.38;4867819;29;20222;-74
2021/11/22 03:40:06;;;;;;;113.43;63.17;;;;;;;-140.05;100.00;61859.38;4868200;29;20245;-69
2021/11/22 03:45:26;;;;;;;109.43;62.30;;;;;;;-140.05;100.00;61859.38;4851964;29;20215;-70
2021/11/22 03:47:54;;;;;;;115.25;62.78;;;;;;;-140.05;100.00;61859.38;4865143;29;20202;-72
2021/11/22 03:50:21;;;;;;;126.97;68.60;;;;;;;-140.05;100.00;61859.38;4865531;29;21071;-71
2021/11/22 03:52:48;;;;;;;121.35;68.55;;;;;;;-140.05;100.00;61859.38;4865653;29;20218;-72
2021/11/22 03:55:15;;;;;;;131.60;71.43;;;;;;;-140.05;100.00;61859.38;4874573;29;20214;-71
2021/11/22 03:57:42;;;;;;;135.35;73.05;;;;;;;-140.05;100.00;61859.38;4876438;29;20202;-69
2021/11/22 04:00:10;;;;;;;137.68;75.53;;;;;;;-140.05;100.00;61859.38;4876962;29;20198;-70
2021/11/22 04:02:37;;;;;;;144.68;76.18;;;;;;;-140.05;100.00;61859.38;4876636;29;20190;-72
2021/11/22 04:05:05;;;;;;;135.93;75.90;;;;;;;-140.05;100.00;61859.38;4876464;29;20731;-68
2021/11/22 04:07:32;;;;;;;138.40;74.90;;;;;;;-140.05;100.00;61859.38;4875948;29;20207;-70
2021/11/22 04:10:00;;;;;;;145.27;77.30;;;;;;;-140.05;100.00;61859.38;4876099;29;20627;-70
2021/11/22 04:12:27;;;;;;;152.70;83.50;;;;;;;-140.05;100.00;61859.38;4865609;29;20202;-75
2021/11/22 04:14:53;;;;;;;139.80;77.13;;;;;;;-140.05;100.00;61859.38;4866659;29;20697;-71
2021/11/22 04:17:20;;;;;;;139.07;80.97;;;;;;;-140.05;100.00;61859.38;4864240;29;20222;-68
2021/11/22 04:19:48;;;;;;;139.88;79.43;;;;;;;-140.05;100.00;61859.38;4865331;29;20225;-71
2021/11/22 04:22:15;;;;;;;137.05;75.38;;;;;;;-140.05;100.00;61859.38;4866573;29;20990;-70
2021/11/22 04:24:43;;;;;;;144.88;79.03;;;;;;;-140.05;100.00;61859.38;4872168;29;20273;-71
2021/11/22 04:27:12;;;;;;;141.75;77.53;;;;;;;-140.05;100.00;61859.38;4864319;29;20206;-68
2021/11/22 04:29:45;;;;;;;145.60;77.28;;;;;;;-140.05;100.00;61859.38;4866516;29;20246;-69
2021/11/22 04:32:12;;;;;;;136.57;74.63;;;;;;;-140.05;100.00;61859.38;4871062;29;20277;-69
2021/11/22 04:34:39;;;;;;;142.15;78.70;;;;;;;-140.05;100.00;61859.38;4878993;29;20206;-67
2021/11/22 04:37:07;;;;;;;139.95;73.93;;;;;;;-140.05;100.00;61859.38;4874973;29;20210;-72
2021/11/22 04:39:34;;;;;;;144.13;74.78;;;;;;;-140.05;100.00;61859.38;4867476;29;20248;-71
2021/11/22 04:42:02;;;;;;;135.60;71.72;;;;;;;-140.05;100.00;61859.38;4869583;29;20203;-68
2021/11/22 04:44:29;;;;;;;135.10;69.32;;;;;;;-140.05;100.00;61859.38;4871341;29;20194;-68
2021/11/22 04:46:56;;;;;;;135.73;69.45;;;;;;;-140.05;100.00;61859.38;4885239;29;20925;-70
2021/11/22 04:49:23;;;;;;;130.15;65.85;;;;;;;-140.05;100.00;61859.38;4879939;29;20301;-69
2021/11/22 04:51:50;;;;;;;110.18;64.18;;;;;;;-140.05;100.00;61859.38;4868788;29;20203;-66
2021/11/22 04:54:17;;;;;;;119.93;65.25;;;;;;;-140.05;100.00;61859.38;4870639;29;20305;-66
2021/11/22 04:56:44;;;;;;;122.78;66.63;;;;;;;-140.05;100.00;61859.38;4879008;29;20198;-69
2021/11/22 04:59:11;;;;;;;127.00;66.53;;;;;;;-140.05;100.00;61859.38;4879582;29;20195;-68
2021/11/22 05:01:38;;;;;;;116.10;64.80;;;;;;;-140.05;100.00;61859.38;4866266;29;20314;-68
2021/11/22 05:04:05;;;;;;;121.03;65.45;;;;;;;-140.05;100.00;61859.38;4870432;29;20258;-67
2021/11/22 05:06:32;;;;;;;117.15;66.38;;;;;;;-140.05;100.00;61859.38;4870736;29;20203;-70
2021/11/22 05:08:59;;;;;;;118.57;63.80;;;;;;;-140.05;100.00;61859.38;4868206;29;20222;-69
2021/11/22 05:11:27;;;;;;;110.85;63.25;;;;;;;-140.05;100.00;61859.38;4870034;29;21240;-70
2021/11/22 05:13:54;;;;;;;112.40;59.22;;;;;;;-140.05;100.00;61859.38;4859522;29;20739;-68
2021/11/22 05:16:21;;;;;;;116.78;63.83;;;;;;;-140.05;100.00;61859.38;4881147;29;20210;-70
2021/11/22 05:18:48;;;;;;;105.82;58.45;;;;;;;-140.05;100.00;61859.38;4880020;29;20203;-70
2021/11/22 05:21:16;;;;;;;103.95;55.55;;;;;;;-140.05;100.00;61859.38;4879440;29;20799;-72
2021/11/22 05:23:43;;;;;;;106.40;54.45;;;;;;;-140.05;100.00;61859.38;4879109;29;20660;-69
2021/11/22 05:26:10;;;;;;;97.05;54.08;;;;;;;-140.05;100.00;61859.38;4879298;29;20221;-68
2021/11/22 05:28:37;;;;;;;104.65;57.20;;;;;;;-140.05;100.00;61859.38;4878645;29;20217;-66
2021/11/22 05:31:04;;;;;;;107.80;56.47;;;;;;;-140.05;100.00;61859.38;4878548;29;20373;-64
2021/11/22 05:33:31;;;;;;;100.80;55.53;;;;;;;-140.05;100.00;61859.38;4878576;29;20210;-65
2021/11/22 05:35:58;;;;;;;104.22;58.78;;;;;;;-140.05;100.00;61859.38;4878603;29;20271;-68
2021/11/22 05:38:24;;;;;;;108.75;56.83;;;;;;;-140.05;100.00;61859.38;4877987;29;20329;-66
2021/11/22 05:40:51;;;;;;;105.45;58.30;;;;;;;-140.05;100.00;61859.38;4877835;29;20203;-63
2021/11/22 05:43:18;;;;;;;109.13;58.72;;;;;;;-140.05;100.00;61859.38;4878311;29;20183;-71
2021/11/22 05:45:45;;;;;;;111.82;58.38;;;;;;;-140.05;100.00;61859.38;4878260;29;20210;-64
2021/11/22 05:48:12;;;;;;;114.45;62.08;;;;;;;-140.05;100.00;61859.38;4878208;29;20301;-68
2021/11/22 05:50:39;;;;;;;126.90;70.50;;;;;;;-140.05;100.00;61859.38;4878569;29;20726;-67
2021/11/22 05:53:08;;;;;;;118.30;64.97;;;;;;;-140.05;100.00;61859.38;4877949;29;20754;-67
2021/11/22 05:55:39;;;;;;;120.07;65.68;;;;;;;-140.05;100.00;61859.38;4878177;29;20266;-70
2021/11/22 05:58:10;;;;;;;119.90;66.88;;;;;;;-140.05;100.00;61859.38;4877839;29;20190;-69
2021/11/22 06:00:37;;;;;;;125.32;68.65;;;;;;;-140.05;100.00;61859.38;4892948;29;20229;-68
2021/11/22 06:03:04;;;;;;;121.20;67.47;;;;;;;-140.05;100.00;61859.38;4892141;29;20588;-70
2021/11/22 06:05:31;;;;;;;127.10;67.45;;;;;;;-140.05;100.00;61859.38;4878609;29;20203;-63
2021/11/22 06:07:59;;;;;;;133.15;70.47;;;;;;;-140.05;100.00;61859.38;4877733;29;20207;-67
2021/11/22 06:10:26;;;;;;;133.55;73.13;;;;;;;-140.05;100.00;61859.38;4878468;29;20218;-67
2021/11/22 06:12:53;;;;;;;151.13;85.63;;;;;;;-140.05;100.00;61859.38;4878003;29;20211;-66
2021/11/22 06:15:21;;;;;;;107.93;59.30;;;;;;;-140.05;100.00;61859.38;4877571;29;20658;-64
2021/11/22 06:17:48;;;;;;;92.78;54.50;;;;;;;-140.05;100.00;61859.38;4877979;29;20206;-67
2021/11/22 06:20:16;;;;;;;98.72;53.25;;;;;;;-140.05;100.00;61859.38;4877691;29;20190;-62
2021/11/22 06:22:43;;;;;;;94.95;51.95;;;;;;;-140.05;100.00;61859.38;4875510;29;20813;-65
2021/11/22 06:25:10;;;;;;;92.55;51.00;;;;;;;-140.05;100.00;61859.38;4876111;29;20206;-61
2021/11/22 06:27:37;;;;;;;85.80;48.03;;;;;;;-140.05;100.00;61859.38;4876524;29;20210;-69
2021/11/22 06:30:06;;;;;;;90.38;49.67;;;;;;;-140.05;100.00;61859.38;4891288;29;20231;-63
2021/11/22 06:32:34;;;;;;;97.47;50.20;;;;;;;-140.05;100.00;61859.38;4876507;29;20207;-65
2021/11/22 06:35:02;;;;;;;94.13;47.40;;;;;;;-140.05;100.00;61859.38;4876968;29;20206;-67
2021/11/22 06:37:31;;;;;;;88.53;46.83;;;;;;;-140.05;100.00;61859.38;4876936;29;20230;-64
2021/11/22 06:39:59;;;;;;;84.75;47.92;;;;;;;-140.05;100.00;61859.38;4877464;29;20258;-65
2021/11/22 06:42:26;;;;;;;84.47;47.58;;;;;;;-140.05;100.00;61859.38;4877520;29;20218;-64
2021/11/22 06:44:53;;;;;;;80.35;45.03;;;;;;;-140.05;100.00;61859.38;4877862;29;20230;-66
2021/11/22 06:47:20;;;;;;;81.90;45.20;;;;;;;-140.05;100.00;61859.38;4877376;29;20210;-68
2021/11/22 06:49:47;;;;;;;81.72;47.20;;;;;;;-140.05;100.00;61859.38;4877760;29;20218;-66
2021/11/22 06:52:15;;;;;;;83.20;45.53;;;;;;;-140.05;100.00;61859.38;4876967;29;20729;-64
2021/11/22 06:54:42;;;;;;;76.93;44.22;;;;;;;-140.05;100.00;61859.38;4877359;29;20289;-67
2021/11/22 06:57:09;;;;;;;71.72;42.55;;;;;;;-140.05;100.00;61859.38;4876579;29;20209;-65
2021/11/22 06:59:36;;;;;;;72.93;41.72;;;;;;;-140.05;100.00;61859.38;4877227;29;20665;-68
2021/11/22 07:02:04;;;;;;;87.90;42.47;;;;;;;-140.05;100.00;61859.38;4877010;29;20364;-66
2021/11/22 07:04:31;;;;;;;70.47;39.33;;;;;;;-140.05;100.00;61859.38;4877481;29;20992;-65
2021/11/22 07:06:58;;;;;;;65.13;39.78;;;;;;;-140.05;100.00;61859.38;4877040;29;20190;-69
2021/11/22 07:09:26;;;;;;;69.07;41.60;;;;;;;-140.05;100.00;61859.38;4876891;29;20210;-67
2021/11/22 07:11:53;;;;;;;109.53;66.15;;;;;;;-140.05;100.00;61859.38;4876447;29;20203;-67
2021/11/22 07:14:20;;;;;;;146.13;87.65;;;;;;;-140.05;100.00;61859.38;4877047;29;20203;-66
2021/11/22 07:16:49;;;;;;;67.63;39.83;;;;;;;-140.05;100.00;61859.38;4876383;29;20213;-65
2021/11/22 07:19:16;;;;;;;61.10;37.08;;;;;;;-140.05;100.00;61859.38;4877277;29;20211;-65
2021/11/22 07:21:43;;;;;;;53.33;35.47;;;;;;;-140.05;100.00;61859.38;4876744;29;20203;-68
2021/11/22 07:24:11;;;;;;;63.03;37.40;;;;;;;-140.05;100.00;61859.38;4876923;29;20206;-67
2021/11/22 07:26:38;;;;;;;59.25;36.72;;;;;;;-140.05;100.00;61859.38;4876843;29;20249;-66
2021/11/22 07:29:07;;;;;;;64.38;36.25;;;;;;;-140.05;100.00;61859.38;4876752;29;20198;-68
2021/11/22 07:31:34;;;;;;;66.65;38.33;;;;;;;-140.05;100.00;61859.38;4877127;29;20289;-68
2021/11/22 07:34:01;;;;;;;63.17;37.40;;;;;;;-140.05;100.00;61859.38;4876725;29;20571;-64
2021/11/22 07:36:28;;;;;;;71.85;38.05;;;;;;;-140.05;100.00;61859.38;4876402;29;20203;-66
2021/11/22 07:38:55;;;;;;;62.70;37.42;;;;;;;-140.05;100.00;61859.38;4876125;29;20302;-66
2021/11/22 07:41:22;;;;;;;60.80;37.45;;;;;;;-140.05;100.00;61859.38;4876882;29;20290;-66
2021/11/22 07:43:49;;;;;;;65.75;38.60;;;;;;;-140.05;100.00;61859.38;4876415;29;20206;-64
2021/11/22 07:46:16;;;;;;;72.00;39.92;;;;;;;-140.05;100.00;61859.38;4876538;29;20214;-68
2021/11/22 07:48:43;;;;;;;65.18;39.35;;;;;;;-140.05;100.00;61859.38;4875999;29;20210;-68
2021/11/22 07:51:11;;;;;;;66.20;38.83;;;;;;;-140.05;100.00;61859.38;4876827;29;20218;-63
2021/11/22 07:53:39;;;;;;;79.85;40.05;;;;;;;-140.05;100.00;61859.38;4891446;29;20214;-66
2021/11/22 07:56:07;;;;;;;66.60;39.55;;;;;;;-140.05;100.00;61859.38;4876904;29;20592;-66
2021/11/22 07:58:34;;;;;;;68.20;42.47;;;;;;;-140.05;100.00;61859.38;4891271;29;20237;-61
2021/11/22 08:01:02;;;;;;;72.13;44.17;;;;;;;-140.05;100.00;61859.38;4891749;29;20568;-62
2021/11/22 08:03:29;;;;;;;74.18;45.90;;;;;;;-140.05;100.00;61859.38;4876256;29;20451;-62
2021/11/22 08:05:58;;;;;;;86.32;52.95;;;;;;;-140.05;100.00;61859.38;4876371;29;20218;-64
2021/11/22 08:08:27;;;;;;;93.37;60.90;;;;;;;-140.05;100.00;61859.38;4876346;29;20202;-67
2021/11/22 08:11:47;;;;;;;95.00;62.47;;;;;;;-140.05;100.00;61859.38;4876239;29;20489;-66
2021/11/22 08:13:47;;;;;;;97.97;65.37;;;;;;;-140.05;100.00;61859.38;4871146;29;20247;-64
2021/11/22 08:16:14;;;;;;;106.07;66.53;;;;;;;-140.05;100.00;61859.38;4876224;29;20958;-65
2021/11/22 08:18:41;;;;;;;100.37;64.60;;;;;;;-140.05;100.00;61859.38;4875325;29;20526;-69
2021/11/22 08:21:08;;;;;;;94.90;60.97;;;;;;;-140.05;100.00;61859.38;4876111;29;20443;-64
2021/11/22 08:23:36;;;;;;;87.63;56.13;;;;;;;-140.05;100.00;61859.38;4875776;29;21013;-65
2021/11/22 08:26:03;;;;;;;74.07;48.97;;;;;;;-140.05;100.00;61859.38;4875991;29;20450;-65
2021/11/22 08:28:30;;;;;;;67.70;46.63;;;;;;;-140.05;100.00;61859.38;4875351;29;20923;-66
2021/11/22 08:30:57;;;;;;;71.80;43.90;;;;;;;-140.05;100.00;61859.38;4876185;29;20554;-68
2021/11/22 08:33:24;;;;;;;71.33;44.37;;;;;;;-140.05;100.00;61859.38;4875522;29;20438;-67
2021/11/22 08:35:51;;;;;;;66.27;44.30;;;;;;;-140.05;100.00;61859.38;4876560;29;20443;-63
2021/11/22 08:38:18;;;;;;;76.27;45.03;;;;;;;-140.05;100.00;61859.38;4875538;29;20443;-65
2021/11/22 08:40:47;;;;;;;63.10;43.23;;;;;;;-140.05;100.00;61859.38;4876093;29;20482;-64
2021/11/22 08:43:17;;;;;;;62.43;42.23;;;;;;;-140.05;100.00;61859.38;4875994;29;20478;-63
2021/11/22 08:45:47;;;;;;;55.53;36.43;;;;;;;-140.05;100.00;61859.38;4876075;29;20443;-66
2021/11/22 08:48:16;;;;;;;55.97;37.23;;;;;;;-140.05;100.00;61859.38;4875070;29;20442;-62
2021/11/22 08:50:43;;;;;;;54.37;35.90;;;;;;;-140.05;100.00;61859.38;4876002;29;20550;-69
2021/11/22 08:53:10;;;;;;;50.27;34.90;;;;;;;-140.05;100.00;61859.38;4875575;29;20482;-68
2021/11/22 08:55:37;;;;;;;50.60;34.93;;;;;;;-140.05;100.00;61859.38;4875922;29;20822;-64
2021/11/22 08:58:04;;;;;;;57.60;38.63;;;;;;;-140.05;100.00;61859.38;4905442;29;20450;-67
2021/11/22 09:00:35;;;;;;;54.80;37.63;;;;;;;-140.05;100.00;61859.38;4876352;29;20751;-65
2021/11/22 09:03:02;;;;;;;59.03;36.50;;;;;;;-140.05;100.00;61859.38;4875429;29;20439;-66
2021/11/22 09:05:29;;;;;;;51.93;35.20;;;;;;;-140.05;100.00;61859.38;4876151;29;20801;-64
2021/11/22 09:07:56;;;;;;;53.87;35.13;;;;;;;-140.05;100.00;61859.38;4875252;29;20431;-65
2021/11/22 09:10:24;;;;;;;50.30;33.80;;;;;;;-140.05;100.00;61859.38;4875684;29;20482;-67
2021/11/22 09:12:51;;;;;;;56.90;36.33;;;;;;;-140.05;100.00;61859.38;4875521;29;20450;-66
2021/11/22 09:15:19;;;;;;;54.00;36.17;;;;;;;-140.05;100.00;61859.38;4875729;29;20461;-66
2021/11/22 09:17:46;;;;;;;53.57;36.53;;;;;;;-140.05;100.00;61859.38;4878633;29;20479;-66
2021/11/22 09:20:14;;;;;;;56.77;38.20;;;;;;;-140.05;100.00;61859.38;4879383;29;20421;-64
2021/11/22 09:22:41;;;;;;;55.47;37.37;;;;;;;-140.05;100.00;61859.38;4893171;29;20442;-63
2021/11/22 09:25:10;;;;;;;52.57;35.83;;;;;;;-140.05;100.00;61859.38;4878989;29;20501;-68
2021/11/22 09:27:37;;;;;;;50.60;36.73;;;;;;;-140.05;100.00;61859.38;4878771;29;20447;-67
2021/11/22 09:30:07;;;;;;;55.13;39.07;;;;;;;-140.05;100.00;61859.38;4879384;29;20486;-65
2021/11/22 09:32:34;;;;;;;71.63;38.30;;;;;;;-140.05;100.00;61859.38;4878847;29;20805;-63
2021/11/22 09:35:03;;;;;;;58.17;40.57;;;;;;;-140.05;100.00;61859.38;4878847;29;20426;-63
2021/11/22 09:37:30;;;;;;;57.07;39.07;;;;;;;-140.05;100.00;61859.38;4879097;29;20451;-66
2021/11/22 09:39:57;;;;;;;63.13;37.83;;;;;;;-140.05;100.00;61859.38;4879039;29;20482;-66
2021/11/22 09:42:24;;;;;;;54.23;37.00;;;;;;;-140.05;100.00;61859.38;4878798;29;20470;-65
2021/11/22 09:44:51;;;;;;;74.80;38.23;;;;;;;-140.05;100.00;61859.38;4879299;29;20431;-69
2021/11/22 09:47:19;;;;;;;52.90;37.10;;;;;;;-140.05;100.00;61859.38;4878448;29;20978;-66
2021/11/22 09:49:46;;;;;;;52.90;36.13;;;;;;;-140.05;100.00;61859.38;4878346;29;20462;-65
2021/11/22 09:52:13;;;;;;;55.50;38.70;;;;;;;-140.05;100.00;61859.38;4878007;29;20486;-63
2021/11/22 09:54:42;;;;;;;61.37;38.47;;;;;;;-140.05;100.00;61859.38;4878619;29;20449;-67
2021/11/22 09:57:12;;;;;;;65.00;40.57;;;;;;;-140.05;100.00;61859.38;4878179;29;20529;-63
2021/11/22 09:59:39;;;;;;;59.60;38.60;;;;;;;-140.05;100.00;61859.38;4878654;29;20423;-67
2021/11/22 10:02:06;;;;;;;55.67;37.93;;;;;;;-140.05;100.00;61859.38;4877749;29;20450;-66
2021/11/22 10:04:33;;;;;;;57.60;37.70;;;;;;;-140.05;100.00;61859.38;4878903;29;20450;-67
2021/11/22 10:07:03;;;;;;;54.10;36.13;;;;;;;-140.05;100.00;61859.38;4878628;29;20445;-66
2021/11/22 10:09:34;;;;;;;60.67;41.00;;;;;;;-140.05;100.00;61859.38;4878631;29;20475;-67
2021/11/22 10:12:08;;;;;;;67.93;44.40;;;;;;;-140.05;100.00;61859.38;4879722;29;20838;-65
2021/11/22 10:14:43;;;;;;;72.97;47.83;;;;;;;-140.05;100.00;61859.38;4878196;29;20451;-66
2021/11/22 10:17:34;;;;;;;76.27;47.90;;;;;;;-140.05;100.00;61859.38;4877720;29;20494;-68
2021/11/22 10:20:09;;;;;;;76.17;47.73;;;;;;;-140.05;100.00;61859.38;4878201;29;20456;-62
2021/11/22 10:22:52;;;;;;;73.77;48.13;;;;;;;-140.05;100.00;61859.38;4877820;29;20485;-65
2021/11/22 10:25:24;;;;;;;66.20;43.27;;;;;;;-140.05;100.00;61859.38;4878054;29;20439;-63
2021/11/22 10:27:51;;;;;;;62.40;40.83;;;;;;;-140.05;100.00;61859.38;4876871;29;20458;-68
2021/11/22 10:30:26;;;;;;;59.50;41.13;;;;;;;-140.05;100.00;61859.38;4877640;29;20963;-66
2021/11/22 10:32:57;;;;;;;61.70;41.23;;;;;;;-140.05;100.00;61859.38;4877454;29;21116;-65
2021/11/22 10:35:26;;;;;;;65.63;46.63;;;;;;;-140.05;100.00;61859.38;4877894;29;20450;-65
2021/11/22 10:38:14;;;;;;;63.97;43.17;;;;;;;-140.05;100.00;61859.38;4878147;29;20514;-65
2021/11/22 10:40:48;;;;;;;59.57;41.80;;;;;;;-140.05;100.00;61859.38;4877601;29;21031;-67
2021/11/22 10:43:15;;;;;;;66.13;44.73;;;;;;;-140.05;100.00;61859.38;4877210;29;20938;-66
2021/11/22 10:45:45;;;;;;;61.53;43.20;;;;;;;-140.05;100.00;61859.38;4877590;29;20557;-65
2021/11/22 10:48:28;;;;;;;63.70;43.13;;;;;;;-140.05;100.00;61859.38;4891022;29;20443;-67
2021/11/22 10:51:11;;;;;;;64.67;40.03;;;;;;;-140.05;100.00;61859.38;4876889;29;20998;-67
2021/11/22 10:53:41;;;;;;;58.80;40.03;;;;;;;-140.05;100.00;61859.38;4877172;29;20568;-63
2021/11/22 10:56:13;;;;;;;61.27;39.40;;;;;;;-140.05;100.00;61859.38;4877736;29;20454;-63
2021/11/22 10:58:46;;;;;;;60.00;40.67;;;;;;;-140.05;100.00;61859.38;4876812;29;20474;-68